Portland, Oregon
Traffic Map
Current Weather Conditions
Portland, Oregon
Broken Clouds
Broken Clouds
40°
Feels Like: 40°
Wind Chill: 40° Ceiling: 4000
Heat Index: 40° Visibility: 10mi
Dew Point: 39° Wind: 0mph
Humidity: 97% Direction: ° ()
Pressure: 30.17in Gusts: 0mph
Raw Report DataKPDX 220453Z 00000KT 10SM BKN040 04/04 A3017 RMK AO2 SLP217 T00440039 $
Traffic Incident Summary
Active as of:
Severity:
Category:
InformationThere was an issue retrieving the traffic information for this location. Please try a different location or try again shortly.
Advertisements
Track Severe Weather on mobile